sensor_id;sensor_type;location;lat;lon;timestamp;pressure;altitude;pressure_sealevel;temperature;humidity
63339;BME280;70568;51.378;-1.342;2023-10-13T00:01:04;99277.08;;;11.65;41.31
63339;BME280;70568;51.378;-1.342;2023-10-13T00:03:31;99273.19;;;12.82;41.31
63339;BME280;70568;51.378;-1.342;2023-10-13T00:05:58;99277.25;;;12.66;42.73
63339;BME280;70568;51.378;-1.342;2023-10-13T00:08:24;99277.18;;;10.81;42.58
63339;BME280;70568;51.378;-1.342;2023-10-13T00:10:50;99269.24;;;13.27;41.65
63339;BME280;70568;51.378;-1.342;2023-10-13T00:13:17;99269.14;;;11.11;44.67
63339;BME280;70568;51.378;-1.342;2023-10-13T00:15:46;99256.88;;;11.78;43.94
63339;BME280;70568;51.378;-1.342;2023-10-13T00:18:13;99255.11;;;12.55;42.79
63339;BME280;70568;51.378;-1.342;2023-10-13T00:20:41;99238.37;;;11.30;44.42
63339;BME280;70568;51.378;-1.342;2023-10-13T00:23:08;99231.93;;;11.59;45.42
63339;BME280;70568;51.378;-1.342;2023-10-13T00:25:34;99232.03;;;13.31;45.18
63339;BME280;70568;51.378;-1.342;2023-10-13T00:28:01;99226.74;;;12.92;44.62
63339;BME280;70568;51.378;-1.342;2023-10-13T00:30:27;99220.72;;;9.72;46.01
63339;BME280;70568;51.378;-1.342;2023-10-13T00:32:53;99207.07;;;11.94;44.13
63339;BME280;70568;51.378;-1.342;2023-10-13T00:35:20;99208.64;;;12.64;43.92
63339;BME280;70568;51.378;-1.342;2023-10-13T00:37:47;99209.48;;;11.41;47.42
63339;BME280;70568;51.378;-1.342;2023-10-13T00:40:13;99203.23;;;12.83;46.51
63339;BME280;70568;51.378;-1.342;2023-10-13T00:42:40;99209.84;;;12.17;48.75
63339;BME280;70568;51.378;-1.342;2023-10-13T00:45:07;99201.15;;;11.02;50.53
63339;BME280;70568;51.378;-1.342;2023-10-13T00:47:34;99208.40;;;10.72;51.37
63339;BME280;70568;51.378;-1.342;2023-10-13T00:50:01;99196.14;;;11.60;50.15
63339;BME280;70568;51.378;-1.342;2023-10-13T00:52:29;99186.41;;;11.78;49.94
63339;BME280;70568;51.378;-1.342;2023-10-13T00:54:57;99181.25;;;10.19;53.33
63339;BME280;70568;51.378;-1.342;2023-10-13T00:57:24;99175.00;;;10.44;50.67
63339;BME280;70568;51.378;-1.342;2023-10-13T00:59:50;99176.26;;;9.27;52.19
63339;BME280;70568;51.378;-1.342;2023-10-13T01:02:17;99172.10;;;10.18;51.66
63339;BME280;70568;51.378;-1.342;2023-10-13T01:04:45;99163.11;;;10.63;51.76
63339;BME280;70568;51.378;-1.342;2023-10-13T01:07:12;99147.74;;;10.41;48.88
63339;BME280;70568;51.378;-1.342;2023-10-13T01:09:40;99143.13;;;8.74;50.15
63339;BME280;70568;51.378;-1.342;2023-10-13T01:12:07;99133.19;;;10.38;48.78
63339;BME280;70568;51.378;-1.342;2023-10-13T01:14:33;99120.56;;;10.18;47.69
63339;BME280;70568;51.378;-1.342;2023-10-13T01:17:01;99120.58;;;9.88;47.60
63339;BME280;70568;51.378;-1.342;2023-10-13T01:19:28;99120.26;;;10.91;47.03
63339;BME280;70568;51.378;-1.342;2023-10-13T01:21:55;99109.96;;;11.78;46.84
63339;BME280;70568;51.378;-1.342;2023-10-13T01:24:22;99106.34;;;12.05;46.72
63339;BME280;70568;51.378;-1.342;2023-10-13T01:26:49;99107.49;;;12.49;45.45
63339;BME280;70568;51.378;-1.342;2023-10-13T01:29:16;99115.91;;;12.78;45.23
63339;BME280;70568;51.378;-1.342;2023-10-13T01:31:46;99099.87;;;11.93;45.95
63339;BME280;70568;51.378;-1.342;2023-10-13T01:34:14;99098.42;;;12.54;45.35
63339;BME280;70568;51.378;-1.342;2023-10-13T01:36:42;99111.95;;;8.87;48.08
63339;BME280;70568;51.378;-1.342;2023-10-13T01:39:10;99102.62;;;11.94;46.70
63339;BME280;70568;51.378;-1.342;2023-10-13T01:41:37;99102.40;;;11.25;45.91
63339;BME280;70568;51.378;-1.342;2023-10-13T01:44:04;99102.85;;;12.15;45.58
63339;BME280;70568;51.378;-1.342;2023-10-13T01:46:31;99099.84;;;12.00;45.85
63339;BME280;70568;51.378;-1.342;2023-10-13T01:48:58;99090.97;;;12.96;43.56
63339;BME280;70568;51.378;-1.342;2023-10-13T01:51:25;99081.96;;;11.67;43.35
63339;BME280;70568;51.378;-1.342;2023-10-13T01:53:52;99069.67;;;13.35;42.93
63339;BME280;70568;51.378;-1.342;2023-10-13T01:56:18;99068.88;;;12.27;43.60
63339;BME280;70568;51.378;-1.342;2023-10-13T01:58:45;99063.09;;;10.69;43.22
63339;BME280;70568;51.378;-1.342;2023-10-13T02:01:11;99059.93;;;13.13;43.13
63339;BME280;70568;51.378;-1.342;2023-10-13T02:03:37;99053.44;;;13.78;42.48
63339;BME280;70568;51.378;-1.342;2023-10-13T02:06:04;99037.51;;;11.33;44.41
63339;BME280;70568;51.378;-1.342;2023-10-13T02:08:33;99034.00;;;12.60;43.51
63339;BME280;70568;51.378;-1.342;2023-10-13T02:11:00;99020.40;;;12.42;43.93
63339;BME280;70568;51.378;-1.342;2023-10-13T02:13:27;99020.25;;;11.52;44.32
63339;BME280;70568;51.378;-1.342;2023-10-13T02:15:55;99005.80;;;10.31;45.92
63339;BME280;70568;51.378;-1.342;2023-10-13T02:18:22;99004.02;;;12.61;43.98
63339;BME280;70568;51.378;-1.342;2023-10-13T02:20:49;98995.73;;;10.79;46.51
63339;BME280;70568;51.378;-1.342;2023-10-13T02:23:15;98989.28;;;10.71;45.82
63339;BME280;70568;51.378;-1.342;2023-10-13T02:25:43;98986.12;;;12.25;43.78
63339;BME280;70568;51.378;-1.342;2023-10-13T02:28:11;98973.50;;;11.92;45.36
63339;BME280;70568;51.378;-1.342;2023-10-13T02:30:38;98955.48;;;11.75;46.56
63339;BME280;70568;51.378;-1.342;2023-10-13T02:33:04;98952.42;;;11.97;46.33
63339;BME280;70568;51.378;-1.342;2023-10-13T02:35:32;98949.66;;;10.52;49.04
63339;BME280;70568;51.378;-1.342;2023-10-13T02:37:58;98942.02;;;11.75;49.90
63339;BME280;70568;51.378;-1.342;2023-10-13T02:40:25;98931.34;;;12.95;49.20
63339;BME280;70568;51.378;-1.342;2023-10-13T02:42:52;98924.79;;;9.16;52.55
63339;BME280;70568;51.378;-1.342;2023-10-13T02:45:19;98905.10;;;11.51;50.10
63339;BME280;70568;51.378;-1.342;2023-10-13T02:47:45;98884.96;;;11.20;50.04
63339;BME280;70568;51.378;-1.342;2023-10-13T02:50:12;98872.31;;;12.05;51.04
63339;BME280;70568;51.378;-1.342;2023-10-13T02:52:39;98862.15;;;12.34;48.28
63339;BME280;70568;51.378;-1.342;2023-10-13T02:55:06;98845.23;;;10.13;50.20
63339;BME280;70568;51.378;-1.342;2023-10-13T02:57:33;98848.25;;;11.17;51.90
63339;BME280;70568;51.378;-1.342;2023-10-13T03:00:00;98844.82;;;11.14;51.17
63339;BME280;70568;51.378;-1.342;2023-10-13T03:02:26;98842.15;;;10.93;52.24
63339;BME280;70568;51.378;-1.342;2023-10-13T03:04:55;98833.25;;;10.17;52.70
63339;BME280;70568;51.378;-1.342;2023-10-13T03:07:22;98828.83;;;11.52;50.68
63339;BME280;70568;51.378;-1.342;2023-10-13T03:09:48;98813.66;;;10.10;54.47
63339;BME280;70568;51.378;-1.342;2023-10-13T03:12:15;98797.55;;;10.44;52.37
63339;BME280;70568;51.378;-1.342;2023-10-13T03:14:44;98792.87;;;11.43;52.95
63339;BME280;70568;51.378;-1.342;2023-10-13T03:17:10;98784.50;;;9.31;55.60
63339;BME280;70568;51.378;-1.342;2023-10-13T03:19:36;98772.86;;;10.97;53.08
63339;BME280;70568;51.378;-1.342;2023-10-13T03:22:05;98778.96;;;11.10;52.19
63339;BME280;70568;51.378;-1.342;2023-10-13T03:24:32;98768.94;;;10.86;53.18
63339;BME280;70568;51.378;-1.342;2023-10-13T03:27:00;98753.12;;;12.34;51.29
63339;BME280;70568;51.378;-1.342;2023-10-13T03:29:27;98755.94;;;10.90;52.70
63339;BME280;70568;51.378;-1.342;2023-10-13T03:31:53;98743.21;;;11.53;51.11
63339;BME280;70568;51.378;-1.342;2023-10-13T03:34:19;98735.62;;;11.73;50.41
63339;BME280;70568;51.378;-1.342;2023-10-13T03:36:46;98734.99;;;11.48;51.81
63339;BME280;70568;51.378;-1.342;2023-10-13T03:39:13;98717.32;;;9.52;53.35
63339;BME280;70568;51.378;-1.342;2023-10-13T03:41:39;98709.14;;;10.59;53.23
63339;BME280;70568;51.378;-1.342;2023-10-13T03:44:06;98723.48;;;10.08;54.71
63339;BME280;70568;51.378;-1.342;2023-10-13T03:46:34;98713.81;;;11.16;57.82
63339;BME280;70568;51.378;-1.342;2023-10-13T03:49:01;98712.73;;;11.96;56.06
63339;BME280;70568;51.378;-1.342;2023-10-13T03:51:28;98722.95;;;8.82;56.42
63339;BME280;70568;51.378;-1.342;2023-10-13T03:53:54;98713.82;;;9.92;54.44
63339;BME280;70568;51.378;-1.342;2023-10-13T03:56:22;98716.54;;;11.53;54.77
63339;BME280;70568;51.378;-1.342;2023-10-13T03:58:49;98724.29;;;9.72;55.58
63339;BME280;70568;51.378;-1.342;2023-10-13T04:01:16;98715.20;;;9.45;57.47
63339;BME280;70568;51.378;-1.342;2023-10-13T04:03:44;98720.18;;;10.23;55.51
63339;BME280;70568;51.378;-1.342;2023-10-13T04:06:11;98720.98;;;9.22;56.94
63339;BME280;70568;51.378;-1.342;2023-10-13T04:08:38;98708.05;;;10.92;53.84
63339;BME280;70568;51.378;-1.342;2023-10-13T04:11:04;98709.97;;;11.94;55.30
63339;BME280;70568;51.378;-1.342;2023-10-13T04:13:31;98711.02;;;9.38;54.58
63339;BME280;70568;51.378;-1.342;2023-10-13T04:15:58;98708.88;;;10.56;55.64
63339;BME280;70568;51.378;-1.342;2023-10-13T04:18:24;98708.49;;;10.42;54.58
63339;BME280;70568;51.378;-1.342;2023-10-13T04:20:53;98696.45;;;9.91;54.94
63339;BME280;70568;51.378;-1.342;2023-10-13T04:23:20;98705.20;;;11.67;53.20
63339;BME280;70568;51.378;-1.342;2023-10-13T04:25:46;98685.48;;;11.94;51.71
63339;BME280;70568;51.378;-1.342;2023-10-13T04:28:14;98690.34;;;11.22;52.47
63339;BME280;70568;51.378;-1.342;2023-10-13T04:30:44;98678.78;;;11.64;53.21
63339;BME280;70568;51.378;-1.342;2023-10-13T04:33:11;98664.46;;;12.19;52.64
63339;BME280;70568;51.378;-1.342;2023-10-13T04:35:38;98664.25;;;9.90;54.63
63339;BME280;70568;51.378;-1.342;2023-10-13T04:38:05;98666.24;;;10.27;52.57
63339;BME280;70568;51.378;-1.342;2023-10-13T04:40:31;98665.94;;;11.94;52.55
63339;BME280;70568;51.378;-1.342;2023-10-13T04:42:58;98678.68;;;10.62;53.69
63339;BME280;70568;51.378;-1.342;2023-10-13T04:45:25;98670.79;;;10.93;53.27
63339;BME280;70568;51.378;-1.342;2023-10-13T04:47:52;98662.48;;;10.83;54.20
63339;BME280;70568;51.378;-1.342;2023-10-13T04:50:19;98669.34;;;11.37;54.89
63339;BME280;70568;51.378;-1.342;2023-10-13T04:52:46;98668.88;;;10.47;57.33
63339;BME280;70568;51.378;-1.342;2023-10-13T04:55:13;98668.89;;;10.37;57.49
63339;BME280;70568;51.378;-1.342;2023-10-13T04:57:40;98660.54;;;10.36;55.93
63339;BME280;70568;51.378;-1.342;2023-10-13T05:00:08;98665.91;;;10.58;55.70
63339;BME280;70568;51.378;-1.342;2023-10-13T05:02:35;98657.28;;;11.20;57.17
63339;BME280;70568;51.378;-1.342;2023-10-13T05:05:02;98653.41;;;11.40;59.91
63339;BME280;70568;51.378;-1.342;2023-10-13T05:07:29;98640.82;;;9.45;58.05
63339;BME280;70568;51.378;-1.342;2023-10-13T05:09:56;98627.19;;;8.65;58.05
63339;BME280;70568;51.378;-1.342;2023-10-13T05:12:22;98624.95;;;11.55;55.48
63339;BME280;70568;51.378;-1.342;2023-10-13T05:14:48;98613.96;;;11.12;53.42
63339;BME280;70568;51.378;-1.342;2023-10-13T05:17:15;98597.53;;;12.78;52.81
63339;BME280;70568;51.378;-1.342;2023-10-13T05:19:43;98598.79;;;11.13;56.03
63339;BME280;70568;51.378;-1.342;2023-10-13T05:22:10;98601.97;;;9.85;56.04
63339;BME280;70568;51.378;-1.342;2023-10-13T05:24:36;98615.09;;;10.33;56.63
63339;BME280;70568;51.378;-1.342;2023-10-13T05:27:03;98603.18;;;10.70;58.35
63339;BME280;70568;51.378;-1.342;2023-10-13T05:29:30;98602.92;;;10.92;58.74
63339;BME280;70568;51.378;-1.342;2023-10-13T05:31:57;98598.75;;;9.91;59.58
63339;BME280;70568;51.378;-1.342;2023-10-13T05:34:24;98606.81;;;10.49;58.74
63339;BME280;70568;51.378;-1.342;2023-10-13T05:36:51;98606.53;;;10.79;57.29
63339;BME280;70568;51.378;-1.342;2023-10-13T05:39:18;98608.14;;;9.90;56.99
63339;BME280;70568;51.378;-1.342;2023-10-13T05:41:45;98600.82;;;10.72;56.11
63339;BME280;70568;51.378;-1.342;2023-10-13T05:44:12;98591.72;;;12.05;52.87
63339;BME280;70568;51.378;-1.342;2023-10-13T05:46:38;98596.90;;;12.84;55.13
63339;BME280;70568;51.378;-1.342;2023-10-13T05:49:06;98594.42;;;12.07;53.96
63339;BME280;70568;51.378;-1.342;2023-10-13T05:51:33;98581.50;;;11.04;52.70
63339;BME280;70568;51.378;-1.342;2023-10-13T05:54:02;98572.05;;;10.99;54.10
63339;BME280;70568;51.378;-1.342;2023-10-13T05:56:29;98569.94;;;10.90;53.10
63339;BME280;70568;51.378;-1.342;2023-10-13T05:58:56;98566.48;;;11.19;53.38
63339;BME280;70568;51.378;-1.342;2023-10-13T06:01:22;98566.61;;;12.11;53.70
63339;BME280;70568;51.378;-1.342;2023-10-13T06:03:49;98558.08;;;11.25;54.23
63339;BME280;70568;51.378;-1.342;2023-10-13T06:06:17;98567.21;;;11.76;53.54
63339;BME280;70568;51.378;-1.342;2023-10-13T06:08:44;98563.61;;;12.20;54.67
63339;BME280;70568;51.378;-1.342;2023-10-13T06:11:11;98551.52;;;11.60;54.84
63339;BME280;70568;51.378;-1.342;2023-10-13T06:13:37;98550.97;;;11.37;53.98
63339;BME280;70568;51.378;-1.342;2023-10-13T06:16:05;98553.90;;;12.23;52.63
63339;BME280;70568;51.378;-1.342;2023-10-13T06:18:31;98551.22;;;12.31;53.41
63339;BME280;70568;51.378;-1.342;2023-10-13T06:21:01;98557.67;;;9.16;57.89
63339;BME280;70568;51.378;-1.342;2023-10-13T06:23:27;98549.75;;;12.49;52.53
63339;BME280;70568;51.378;-1.342;2023-10-13T06:25:55;98554.60;;;13.50;50.94
63339;BME280;70568;51.378;-1.342;2023-10-13T06:28:22;98556.59;;;11.40;52.54
63339;BME280;70568;51.378;-1.342;2023-10-13T06:30:58;98565.07;;;12.04;53.12
63339;BME280;70568;51.378;-1.342;2023-10-13T06:33:26;98560.83;;;12.07;51.12
63339;BME280;70568;51.378;-1.342;2023-10-13T06:35:52;98555.88;;;12.36;52.24
63339;BME280;70568;51.378;-1.342;2023-10-13T06:38:19;98561.94;;;12.18;54.09
63339;BME280;70568;51.378;-1.342;2023-10-13T06:40:46;98556.50;;;11.83;54.07
63339;BME280;70568;51.378;-1.342;2023-10-13T06:43:12;98546.96;;;11.99;53.14
63339;BME280;70568;51.378;-1.342;2023-10-13T06:45:39;98558.36;;;11.90;53.99
63339;BME280;70568;51.378;-1.342;2023-10-13T06:48:06;98550.69;;;12.25;53.69
63339;BME280;70568;51.378;-1.342;2023-10-13T06:50:33;98553.26;;;11.87;53.92
63339;BME280;70568;51.378;-1.342;2023-10-13T06:53:00;98549.85;;;12.61;53.74
63339;BME280;70568;51.378;-1.342;2023-10-13T06:55:26;98550.70;;;11.28;55.22
63339;BME280;70568;51.378;-1.342;2023-10-13T06:57:53;98554.62;;;11.59;57.02
63339;BME280;70568;51.378;-1.342;2023-10-13T07:00:20;98555.40;;;11.99;55.19
63339;BME280;70568;51.378;-1.342;2023-10-13T07:02:46;98550.85;;;12.54;53.44
63339;BME280;70568;51.378;-1.342;2023-10-13T07:05:14;98555.68;;;11.88;54.85
63339;BME280;70568;51.378;-1.342;2023-10-13T07:07:40;98560.11;;;11.10;57.22
63339;BME280;70568;51.378;-1.342;2023-10-13T07:10:09;98555.62;;;12.03;52.92
63339;BME280;70568;51.378;-1.342;2023-10-13T07:12:35;98547.67;;;13.08;50.72
63339;BME280;70568;51.378;-1.342;2023-10-13T07:15:02;98554.81;;;12.46;50.15
63339;BME280;70568;51.378;-1.342;2023-10-13T07:17:28;98552.22;;;12.86;48.11
63339;BME280;70568;51.378;-1.342;2023-10-13T07:19:55;98555.13;;;13.57;47.73
63339;BME280;70568;51.378;-1.342;2023-10-13T07:22:22;98566.07;;;11.92;48.99
63339;BME280;70568;51.378;-1.342;2023-10-13T07:24:50;98567.01;;;12.32;51.27
63339;BME280;70568;51.378;-1.342;2023-10-13T07:27:17;98560.82;;;12.10;52.91
63339;BME280;70568;51.378;-1.342;2023-10-13T07:29:45;98569.52;;;12.69;53.64
63339;BME280;70568;51.378;-1.342;2023-10-13T07:32:11;98557.19;;;11.98;53.05
63339;BME280;70568;51.378;-1.342;2023-10-13T07:34:38;98554.69;;;13.06;51.70
63339;BME280;70568;51.378;-1.342;2023-10-13T07:37:05;98562.19;;;12.89;53.72
63339;BME280;70568;51.378;-1.342;2023-10-13T07:39:31;98557.54;;;11.29;54.94
63339;BME280;70568;51.378;-1.342;2023-10-13T07:41:58;98560.59;;;11.54;55.27
63339;BME280;70568;51.378;-1.342;2023-10-13T07:44:25;98558.53;;;11.72;54.26
63339;BME280;70568;51.378;-1.342;2023-10-13T07:46:53;98556.81;;;10.62;54.57
63339;BME280;70568;51.378;-1.342;2023-10-13T07:49:19;98574.20;;;11.79;56.20
63339;BME280;70568;51.378;-1.342;2023-10-13T07:51:46;98568.30;;;11.06;56.61
63339;BME280;70568;51.378;-1.342;2023-10-13T07:54:13;98576.04;;;11.54;54.52
63339;BME280;70568;51.378;-1.342;2023-10-13T07:56:40;98554.04;;;11.28;53.32
63339;BME280;70568;51.378;-1.342;2023-10-13T07:59:06;98556.42;;;12.61;52.34
63339;BME280;70568;51.378;-1.342;2023-10-13T08:01:33;98564.78;;;11.42;53.96
63339;BME280;70568;51.378;-1.342;2023-10-13T08:03:59;98571.58;;;11.76;54.82
63339;BME280;70568;51.378;-1.342;2023-10-13T08:06:26;98578.34;;;10.56;56.52
63339;BME280;70568;51.378;-1.342;2023-10-13T08:08:52;98577.11;;;10.28;57.06
63339;BME280;70568;51.378;-1.342;2023-10-13T08:11:19;98582.99;;;10.51;55.39
63339;BME280;70568;51.378;-1.342;2023-10-13T08:13:46;98588.49;;;11.61;54.17
63339;BME280;70568;51.378;-1.342;2023-10-13T08:16:13;98581.13;;;10.09;54.91
63339;BME280;70568;51.378;-1.342;2023-10-13T08:18:40;98580.61;;;10.92;54.16
63339;BME280;70568;51.378;-1.342;2023-10-13T08:21:07;98582.36;;;11.10;53.92
63339;BME280;70568;51.378;-1.342;2023-10-13T08:23:34;98584.32;;;11.61;53.13
63339;BME280;70568;51.378;-1.342;2023-10-13T08:26:08;98583.65;;;12.31;52.02
63339;BME280;70568;51.378;-1.342;2023-10-13T08:28:35;98585.45;;;13.94;49.68
63339;BME280;70568;51.378;-1.342;2023-10-13T08:31:03;98593.08;;;13.61;49.86
63339;BME280;70568;51.378;-1.342;2023-10-13T08:33:30;98602.39;;;11.62;53.36
63339;BME280;70568;51.378;-1.342;2023-10-13T08:35:56;98606.04;;;11.32;55.41
63339;BME280;70568;51.378;-1.342;2023-10-13T08:38:24;98612.68;;;11.23;54.44
63339;BME280;70568;51.378;-1.342;2023-10-13T08:40:51;98602.06;;;11.33;53.42
63339;BME280;70568;51.378;-1.342;2023-10-13T08:43:18;98597.96;;;12.42;51.86
63339;BME280;70568;51.378;-1.342;2023-10-13T08:45:45;98599.99;;;11.95;55.44
63339;BME280;70568;51.378;-1.342;2023-10-13T08:48:12;98595.20;;;11.85;52.66
63339;BME280;70568;51.378;-1.342;2023-10-13T08:50:45;98584.27;;;10.78;54.18
63339;BME280;70568;51.378;-1.342;2023-10-13T08:53:15;98591.45;;;12.85;53.30
63339;BME280;70568;51.378;-1.342;2023-10-13T08:55:42;98597.22;;;11.59;55.04
63339;BME280;70568;51.378;-1.342;2023-10-13T08:58:09;98596.45;;;12.85;51.53
63339;BME280;70568;51.378;-1.342;2023-10-13T09:00:35;98587.31;;;13.63;49.63
63339;BME280;70568;51.378;-1.342;2023-10-13T09:03:06;98590.80;;;13.06;49.06
63339;BME280;70568;51.378;-1.342;2023-10-13T09:05:33;98601.38;;;12.69;50.03
63339;BME280;70568;51.378;-1.342;2023-10-13T09:08:00;98594.39;;;12.34;50.75
63339;BME280;70568;51.378;-1.342;2023-10-13T09:10:27;98599.37;;;12.11;51.82
63339;BME280;70568;51.378;-1.342;2023-10-13T09:12:54;98583.02;;;12.41;51.07
63339;BME280;70568;51.378;-1.342;2023-10-13T09:15:28;98583.98;;;12.95;52.68
63339;BME280;70568;51.378;-1.342;2023-10-13T09:17:55;98596.33;;;11.43;53.46
63339;BME280;70568;51.378;-1.342;2023-10-13T09:20:30;98606.56;;;12.01;54.31
63339;BME280;70568;51.378;-1.342;2023-10-13T09:22:58;98600.35;;;12.07;51.40
63339;BME280;70568;51.378;-1.342;2023-10-13T09:25:25;98580.73;;;13.26;50.09
63339;BME280;70568;51.378;-1.342;2023-10-13T09:27:51;98590.96;;;12.85;50.02
63339;BME280;70568;51.378;-1.342;2023-10-13T09:30:18;98591.67;;;12.90;51.23
63339;BME280;70568;51.378;-1.342;2023-10-13T09:32:45;98592.59;;;11.03;51.97
63339;BME280;70568;51.378;-1.342;2023-10-13T09:35:17;98599.84;;;13.17;50.23
63339;BME280;70568;51.378;-1.342;2023-10-13T09:37:44;98598.85;;;11.54;49.86
63339;BME280;70568;51.378;-1.342;2023-10-13T09:40:15;98597.28;;;13.82;47.80
63339;BME280;70568;51.378;-1.342;2023-10-13T09:42:43;98596.45;;;14.70;48.68
63339;BME280;70568;51.378;-1.342;2023-10-13T09:45:10;98600.82;;;13.51;50.79
63339;BME280;70568;51.378;-1.342;2023-10-13T09:47:36;98592.69;;;11.54;52.38
63339;BME280;70568;51.378;-1.342;2023-10-13T09:50:04;98598.96;;;13.34;51.85
63339;BME280;70568;51.378;-1.342;2023-10-13T09:52:35;98595.21;;;12.80;51.92
63339;BME280;70568;51.378;-1.342;2023-10-13T09:55:11;98598.95;;;12.69;52.03
63339;BME280;70568;51.378;-1.342;2023-10-13T09:57:45;98604.71;;;13.53;50.76
63339;BME280;70568;51.378;-1.342;2023-10-13T10:00:18;98614.32;;;12.28;50.46
63339;BME280;70568;51.378;-1.342;2023-10-13T10:02:45;98610.15;;;13.05;51.57
63339;BME280;70568;51.378;-1.342;2023-10-13T10:05:12;98604.15;;;12.82;49.09
63339;BME280;70568;51.378;-1.342;2023-10-13T10:07:40;98594.44;;;10.63;49.86
63339;BME280;70568;51.378;-1.342;2023-10-13T10:10:08;98599.09;;;13.38;46.40
63339;BME280;70568;51.378;-1.342;2023-10-13T10:12:42;98597.31;;;13.06;46.64
63339;BME280;70568;51.378;-1.342;2023-10-13T10:15:26;98594.31;;;12.87;48.83
63339;BME280;70568;51.378;-1.342;2023-10-13T10:17:53;98589.02;;;13.72;48.32
63339;BME280;70568;51.378;-1.342;2023-10-13T10:20:28;98585.61;;;11.74;50.68
63339;BME280;70568;51.378;-1.342;2023-10-13T10:22:56;98587.03;;;12.51;49.38
63339;BME280;70568;51.378;-1.342;2023-10-13T10:25:29;98582.28;;;12.87;49.89
63339;BME280;70568;51.378;-1.342;2023-10-13T10:27:57;98575.98;;;13.43;47.37
63339;BME280;70568;51.378;-1.342;2023-10-13T10:30:25;98581.10;;;14.78;48.32
63339;BME280;70568;51.378;-1.342;2023-10-13T10:32:54;98587.89;;;12.70;49.36
63339;BME280;70568;51.378;-1.342;2023-10-13T10:35:23;98591.23;;;13.43;47.44
63339;BME280;70568;51.378;-1.342;2023-10-13T10:37:50;98592.44;;;12.77;50.50
63339;BME280;70568;51.378;-1.342;2023-10-13T10:40:17;98589.45;;;13.14;50.20
63339;BME280;70568;51.378;-1.342;2023-10-13T10:42:50;98593.80;;;12.73;47.83
63339;BME280;70568;51.378;-1.342;2023-10-13T10:45:17;98604.51;;;13.92;50.10
63339;BME280;70568;51.378;-1.342;2023-10-13T10:47:47;98602.99;;;13.04;49.37
63339;BME280;70568;51.378;-1.342;2023-10-13T10:50:25;98601.95;;;14.44;49.12
63339;BME280;70568;51.378;-1.342;2023-10-13T10:52:52;98605.23;;;12.16;52.50
63339;BME280;70568;51.378;-1.342;2023-10-13T10:55:19;98601.10;;;12.84;49.02
63339;BME280;70568;51.378;-1.342;2023-10-13T10:57:46;98597.29;;;12.03;49.99
63339;BME280;70568;51.378;-1.342;2023-10-13T11:00:18;98598.94;;;12.58;49.09
63339;BME280;70568;51.378;-1.342;2023-10-13T11:02:53;98598.96;;;14.22;48.38
63339;BME280;70568;51.378;-1.342;2023-10-13T11:05:20;98600.24;;;12.06;49.00
63339;BME280;70568;51.378;-1.342;2023-10-13T11:07:47;98599.87;;;14.98;48.67
63339;BME280;70568;51.378;-1.342;2023-10-13T11:10:14;98595.54;;;12.21;49.50
63339;BME280;70568;51.378;-1.342;2023-10-13T11:12:40;98603.58;;;12.18;49.37
63339;BME280;70568;51.378;-1.342;2023-10-13T11:15:08;98604.82;;;11.50;50.69
63339;BME280;70568;51.378;-1.342;2023-10-13T11:17:34;98592.56;;;12.71;50.09
63339;BME280;70568;51.378;-1.342;2023-10-13T11:20:09;98585.88;;;12.06;50.51
63339;BME280;70568;51.378;-1.342;2023-10-13T11:22:37;98580.28;;;13.45;45.81
63339;BME280;70568;51.378;-1.342;2023-10-13T11:25:05;98581.13;;;14.32;45.76
63339;BME280;70568;51.378;-1.342;2023-10-13T11:27:32;98588.89;;;13.92;45.57
63339;BME280;70568;51.378;-1.342;2023-10-13T11:29:59;98587.93;;;14.92;44.28
63339;BME280;70568;51.378;-1.342;2023-10-13T11:32:26;98589.23;;;13.84;43.57
63339;BME280;70568;51.378;-1.342;2023-10-13T11:34:52;98584.23;;;13.78;45.04
63339;BME280;70568;51.378;-1.342;2023-10-13T11:37:19;98593.06;;;14.02;44.16
63339;BME280;70568;51.378;-1.342;2023-10-13T11:39:45;98593.79;;;12.40;46.15
63339;BME280;70568;51.378;-1.342;2023-10-13T11:42:12;98591.17;;;14.19;45.99
63339;BME280;70568;51.378;-1.342;2023-10-13T11:44:39;98587.81;;;14.07;45.17
63339;BME280;70568;51.378;-1.342;2023-10-13T11:47:05;98588.08;;;13.64;44.20
63339;BME280;70568;51.378;-1.342;2023-10-13T11:49:32;98589.97;;;14.41;46.36
63339;BME280;70568;51.378;-1.342;2023-10-13T11:51:59;98589.14;;;14.21;45.23
63339;BME280;70568;51.378;-1.342;2023-10-13T11:54:26;98587.05;;;13.05;44.27
63339;BME280;70568;51.378;-1.342;2023-10-13T11:56:53;98577.99;;;14.65;41.96
63339;BME280;70568;51.378;-1.342;2023-10-13T11:59:19;98577.98;;;12.34;44.28
63339;BME280;70568;51.378;-1.342;2023-10-13T12:01:46;98583.75;;;15.22;43.24
63339;BME280;70568;51.378;-1.342;2023-10-13T12:04:13;98592.20;;;14.74;42.91
63339;BME280;70568;51.378;-1.342;2023-10-13T12:06:39;98589.08;;;13.27;45.76
63339;BME280;70568;51.378;-1.342;2023-10-13T12:09:08;98583.51;;;14.38;43.57
63339;BME280;70568;51.378;-1.342;2023-10-13T12:11:35;98574.94;;;15.15;41.69
63339;BME280;70568;51.378;-1.342;2023-10-13T12:14:02;98577.84;;;14.02;43.39
63339;BME280;70568;51.378;-1.342;2023-10-13T12:16:29;98569.32;;;13.09;43.15
63339;BME280;70568;51.378;-1.342;2023-10-13T12:18:56;98580.73;;;13.09;43.15
63339;BME280;70568;51.378;-1.342;2023-10-13T12:21:22;98581.22;;;13.10;47.68
63339;BME280;70568;51.378;-1.342;2023-10-13T12:23:49;98574.65;;;12.43;46.49
63339;BME280;70568;51.378;-1.342;2023-10-13T12:26:15;98565.56;;;15.16;44.44
63339;BME280;70568;51.378;-1.342;2023-10-13T12:28:43;98557.63;;;13.66;44.24
63339;BME280;70568;51.378;-1.342;2023-10-13T12:31:10;98559.45;;;13.94;43.04
63339;BME280;70568;51.378;-1.342;2023-10-13T12:33:36;98554.17;;;13.95;43.89
63339;BME280;70568;51.378;-1.342;2023-10-13T12:36:03;98546.34;;;15.57;42.24
63339;BME280;70568;51.378;-1.342;2023-10-13T12:38:31;98546.15;;;13.03;43.50
63339;BME280;70568;51.378;-1.342;2023-10-13T12:40:58;98538.89;;;14.78;42.48
63339;BME280;70568;51.378;-1.342;2023-10-13T12:43:24;98543.05;;;14.70;43.17
63339;BME280;70568;51.378;-1.342;2023-10-13T12:45:51;98532.42;;;14.14;42.72
63339;BME280;70568;51.378;-1.342;2023-10-13T12:48:18;98532.68;;;13.99;40.61
63339;BME280;70568;51.378;-1.342;2023-10-13T12:50:45;98530.13;;;14.60;39.91